sensor_id;sensor_type;location;lat;lon;timestamp;P1;durP1;ratioP1;P2;durP2;ratioP2
59986;SDS011;46181;51.498;5.392;2023-04-23T00:03:14;0.384;;;0.376;;
59986;SDS011;46181;51.498;5.392;2023-04-23T00:07:44;0.148;;;0.148;;
59986;SDS011;46181;51.498;5.392;2023-04-23T00:12:14;0.308;;;0.308;;
59986;SDS011;46181;51.498;5.392;2023-04-23T00:16:44;1.008;;;0.964;;
59986;SDS011;46181;51.498;5.392;2023-04-23T00:21:14;0.176;;;0.176;;
59986;SDS011;46181;51.498;5.392;2023-04-23T00:25:44;0.112;;;0.112;;
59986;SDS011;46181;51.498;5.392;2023-04-23T00:30:14;0.208;;;0.196;;
59986;SDS011;46181;51.498;5.392;2023-04-23T00:34:44;0.544;;;0.544;;
59986;SDS011;46181;51.498;5.392;2023-04-23T00:39:14;0.504;;;0.504;;
59986;SDS011;46181;51.498;5.392;2023-04-23T00:43:44;1.012;;;0.564;;
59986;SDS011;46181;51.498;5.392;2023-04-23T00:48:14;0.812;;;0.384;;
59986;SDS011;46181;51.498;5.392;2023-04-23T00:52:44;1.28;;;0.912;;
59986;SDS011;46181;51.498;5.392;2023-04-23T00:57:14;0.612;;;0.528;;
59986;SDS011;46181;51.498;5.392;2023-04-23T01:01:44;0.68;;;0.68;;
59986;SDS011;46181;51.498;5.392;2023-04-23T01:06:14;0.1;;;0.1;;
59986;SDS011;46181;51.498;5.392;2023-04-23T01:10:44;0.308;;;0.2;;
59986;SDS011;46181;51.498;5.392;2023-04-23T01:15:14;0.168;;;0.168;;
59986;SDS011;46181;51.498;5.392;2023-04-23T01:19:44;0.548;;;0.54;;
59986;SDS011;46181;51.498;5.392;2023-04-23T01:24:14;0.788;;;0.756;;
59986;SDS011;46181;51.498;5.392;2023-04-23T01:28:44;0.232;;;0.2;;
59986;SDS011;46181;51.498;5.392;2023-04-23T01:33:14;0.456;;;0.456;;
59986;SDS011;46181;51.498;5.392;2023-04-23T01:37:44;0.764;;;0.764;;
59986;SDS011;46181;51.498;5.392;2023-04-23T01:42:14;1.6;;;0.912;;
59986;SDS011;46181;51.498;5.392;2023-04-23T01:46:44;1.28;;;1.132;;
59986;SDS011;46181;51.498;5.392;2023-04-23T01:51:14;1.42;;;0.74;;
59986;SDS011;46181;51.498;5.392;2023-04-23T01:55:44;1.588;;;0.464;;
59986;SDS011;46181;51.498;5.392;2023-04-23T02:00:14;0.18;;;0.18;;
59986;SDS011;46181;51.498;5.392;2023-04-23T02:04:44;1.012;;;0.876;;
59986;SDS011;46181;51.498;5.392;2023-04-23T02:09:14;0.524;;;0.524;;
59986;SDS011;46181;51.498;5.392;2023-04-23T02:13:44;1.264;;;0.48;;
59986;SDS011;46181;51.498;5.392;2023-04-23T02:18:14;1.124;;;0.708;;
59986;SDS011;46181;51.498;5.392;2023-04-23T02:22:44;3.964;;;0.896;;
59986;SDS011;46181;51.498;5.392;2023-04-23T02:27:14;0.2;;;0.2;;
59986;SDS011;46181;51.498;5.392;2023-04-23T02:31:44;0.116;;;0.116;;
59986;SDS011;46181;51.498;5.392;2023-04-23T02:36:14;1.32;;;0.788;;
59986;SDS011;46181;51.498;5.392;2023-04-23T02:40:44;0.452;;;0.452;;
59986;SDS011;46181;51.498;5.392;2023-04-23T02:45:14;0.428;;;0.428;;
59986;SDS011;46181;51.498;5.392;2023-04-23T02:49:44;0.616;;;0.472;;
59986;SDS011;46181;51.498;5.392;2023-04-23T02:54:14;0.352;;;0.232;;
59986;SDS011;46181;51.498;5.392;2023-04-23T02:58:44;0.368;;;0.344;;
59986;SDS011;46181;51.498;5.392;2023-04-23T03:03:14;0.484;;;0.38;;
59986;SDS011;46181;51.498;5.392;2023-04-23T03:07:44;0.616;;;0.56;;
59986;SDS011;46181;51.498;5.392;2023-04-23T03:12:14;0.268;;;0.268;;
59986;SDS011;46181;51.498;5.392;2023-04-23T03:16:44;1.008;;;0.632;;
59986;SDS011;46181;51.498;5.392;2023-04-23T03:21:14;0.556;;;0.424;;
59986;SDS011;46181;51.498;5.392;2023-04-23T03:25:44;0.92;;;0.468;;
59986;SDS011;46181;51.498;5.392;2023-04-23T03:30:14;0.376;;;0.356;;
59986;SDS011;46181;51.498;5.392;2023-04-23T03:34:44;0.392;;;0.368;;
59986;SDS011;46181;51.498;5.392;2023-04-23T03:39:14;0.22;;;0.22;;
59986;SDS011;46181;51.498;5.392;2023-04-23T03:43:44;0.288;;;0.288;;
59986;SDS011;46181;51.498;5.392;2023-04-23T03:48:14;0.26;;;0.224;;
59986;SDS011;46181;51.498;5.392;2023-04-23T03:52:44;0.192;;;0.192;;
59986;SDS011;46181;51.498;5.392;2023-04-23T03:57:14;0.396;;;0.396;;
59986;SDS011;46181;51.498;5.392;2023-04-23T04:01:44;0.264;;;0.264;;
59986;SDS011;46181;51.498;5.392;2023-04-23T04:06:14;1.388;;;0.632;;
59986;SDS011;46181;51.498;5.392;2023-04-23T04:10:44;0.328;;;0.312;;
59986;SDS011;46181;51.498;5.392;2023-04-23T04:15:14;0.304;;;0.304;;
59986;SDS011;46181;51.498;5.392;2023-04-23T04:19:44;0.272;;;0.272;;
59986;SDS011;46181;51.498;5.392;2023-04-23T04:24:14;0.956;;;0.52;;
59986;SDS011;46181;51.498;5.392;2023-04-23T04:28:44;0.192;;;0.192;;
59986;SDS011;46181;51.498;5.392;2023-04-23T04:33:14;0.112;;;0.112;;
59986;SDS011;46181;51.498;5.392;2023-04-23T04:37:44;0.164;;;0.164;;
59986;SDS011;46181;51.498;5.392;2023-04-23T04:42:14;0.16;;;0.16;;
59986;SDS011;46181;51.498;5.392;2023-04-23T04:46:44;0.58;;;0.58;;
59986;SDS011;46181;51.498;5.392;2023-04-23T04:51:14;0.212;;;0.212;;
59986;SDS011;46181;51.498;5.392;2023-04-23T04:55:44;0.172;;;0.172;;
59986;SDS011;46181;51.498;5.392;2023-04-23T05:00:26;0.544;;;0.296;;
59986;SDS011;46181;51.498;5.392;2023-04-23T05:04:44;0.1;;;0.1;;
59986;SDS011;46181;51.498;5.392;2023-04-23T05:09:14;0.208;;;0.208;;
59986;SDS011;46181;51.498;5.392;2023-04-23T05:13:44;0.276;;;0.236;;
59986;SDS011;46181;51.498;5.392;2023-04-23T05:18:14;0.136;;;0.136;;
59986;SDS011;46181;51.498;5.392;2023-04-23T05:22:44;0.196;;;0.196;;
59986;SDS011;46181;51.498;5.392;2023-04-23T05:27:14;0.36;;;0.344;;
59986;SDS011;46181;51.498;5.392;2023-04-23T05:31:44;0.436;;;0.436;;
59986;SDS011;46181;51.498;5.392;2023-04-23T05:36:14;0.392;;;0.3;;
59986;SDS011;46181;51.498;5.392;2023-04-23T05:40:44;1.168;;;1.072;;
59986;SDS011;46181;51.498;5.392;2023-04-23T05:45:14;0.288;;;0.248;;
59986;SDS011;46181;51.498;5.392;2023-04-23T05:49:44;0.648;;;0.596;;
59986;SDS011;46181;51.498;5.392;2023-04-23T05:54:14;0.308;;;0.308;;
59986;SDS011;46181;51.498;5.392;2023-04-23T05:58:45;0.312;;;0.252;;
59986;SDS011;46181;51.498;5.392;2023-04-23T06:03:14;0.772;;;0.42;;
59986;SDS011;46181;51.498;5.392;2023-04-23T06:07:44;2.172;;;0.492;;
59986;SDS011;46181;51.498;5.392;2023-04-23T06:12:14;1.108;;;0.372;;
59986;SDS011;46181;51.498;5.392;2023-04-23T06:16:44;0.22;;;0.192;;
59986;SDS011;46181;51.498;5.392;2023-04-23T06:21:14;16.728;;;11.528;;
59986;SDS011;46181;51.498;5.392;2023-04-23T06:25:44;19.08;;;12.544;;
59986;SDS011;46181;51.498;5.392;2023-04-23T06:30:14;18.564;;;11.74;;
59986;SDS011;46181;51.498;5.392;2023-04-23T06:34:44;18.776;;;11.384;;
59986;SDS011;46181;51.498;5.392;2023-04-23T06:39:14;18.288;;;11.212;;
59986;SDS011;46181;51.498;5.392;2023-04-23T06:43:44;17.432;;;10.412;;
59986;SDS011;46181;51.498;5.392;2023-04-23T06:48:14;19.516;;;11.212;;
59986;SDS011;46181;51.498;5.392;2023-04-23T06:52:44;16.412;;;9.9;;
59986;SDS011;46181;51.498;5.392;2023-04-23T06:57:14;15.428;;;9.492001;;
59986;SDS011;46181;51.498;5.392;2023-04-23T07:01:44;14.316;;;9.051999;;
59986;SDS011;46181;51.498;5.392;2023-04-23T07:06:14;13.648;;;8.396;;
59986;SDS011;46181;51.498;5.392;2023-04-23T07:10:44;12.136;;;7.656;;
59986;SDS011;46181;51.498;5.392;2023-04-23T07:15:14;14.772;;;7.564;;
59986;SDS011;46181;51.498;5.392;2023-04-23T07:19:44;13.956;;;7.68;;
59986;SDS011;46181;51.498;5.392;2023-04-23T07:24:14;11.584;;;6.996;;
59986;SDS011;46181;51.498;5.392;2023-04-23T07:28:44;13.244;;;6.6;;
59986;SDS011;46181;51.498;5.392;2023-04-23T07:33:14;11.768;;;5.716001;;
59986;SDS011;46181;51.498;5.392;2023-04-23T07:37:44;10.032;;;6.295999;;
59986;SDS011;46181;51.498;5.392;2023-04-23T07:42:14;9.615998;;;5.380001;;
59986;SDS011;46181;51.498;5.392;2023-04-23T07:46:44;11.488;;;4.852002;;
59986;SDS011;46181;51.498;5.392;2023-04-23T07:51:14;9.396;;;4.664;;
59986;SDS011;46181;51.498;5.392;2023-04-23T07:55:44;9.924001;;;3.616;;
59986;SDS011;46181;51.498;5.392;2023-04-23T08:00:14;7.864;;;3.48;;
59986;SDS011;46181;51.498;5.392;2023-04-23T08:04:44;8.095999;;;3.096;;
59986;SDS011;46181;51.498;5.392;2023-04-23T08:09:14;7.687999;;;3.224;;
59986;SDS011;46181;51.498;5.392;2023-04-23T08:13:44;7.072;;;3.244;;
59986;SDS011;46181;51.498;5.392;2023-04-23T08:18:14;7.492;;;3.052;;
59986;SDS011;46181;51.498;5.392;2023-04-23T08:22:44;7.416;;;3.396001;;
59986;SDS011;46181;51.498;5.392;2023-04-23T08:27:14;7.599999;;;3.244;;
59986;SDS011;46181;51.498;5.392;2023-04-23T08:31:44;6.292;;;2.92;;
59986;SDS011;46181;51.498;5.392;2023-04-23T08:36:14;7.079999;;;2.68;;
59986;SDS011;46181;51.498;5.392;2023-04-23T08:40:44;7.376;;;2.724;;
59986;SDS011;46181;51.498;5.392;2023-04-23T08:45:14;10.156;;;2.78;;
59986;SDS011;46181;51.498;5.392;2023-04-23T08:49:44;7.356;;;2.144;;
59986;SDS011;46181;51.498;5.392;2023-04-23T08:54:15;6.076;;;2.1;;
59986;SDS011;46181;51.498;5.392;2023-04-23T08:58:44;5.064;;;1.896;;
59986;SDS011;46181;51.498;5.392;2023-04-23T09:03:14;5.588;;;1.6;;
59986;SDS011;46181;51.498;5.392;2023-04-23T09:07:44;7.452;;;1.6;;
59986;SDS011;46181;51.498;5.392;2023-04-23T09:12:14;5.048;;;1.768;;
59986;SDS011;46181;51.498;5.392;2023-04-23T09:16:44;7.143999;;;1.684;;
59986;SDS011;46181;51.498;5.392;2023-04-23T09:21:14;6.343999;;;1.652;;
59986;SDS011;46181;51.498;5.392;2023-04-23T09:25:44;6.144;;;2.04;;
59986;SDS011;46181;51.498;5.392;2023-04-23T09:30:14;6.404001;;;1.44;;
59986;SDS011;46181;51.498;5.392;2023-04-23T09:34:44;4.828;;;1.196;;
59986;SDS011;46181;51.498;5.392;2023-04-23T09:39:15;5.251999;;;1.584;;
59986;SDS011;46181;51.498;5.392;2023-04-23T09:43:45;6.904;;;1.508;;
59986;SDS011;46181;51.498;5.392;2023-04-23T09:48:14;5.996;;;1.568;;
59986;SDS011;46181;51.498;5.392;2023-04-23T09:52:44;5.880001;;;1.3;;
59986;SDS011;46181;51.498;5.392;2023-04-23T09:57:14;4.204;;;1.456;;
59986;SDS011;46181;51.498;5.392;2023-04-23T10:01:44;4.7;;;1.376;;
59986;SDS011;46181;51.498;5.392;2023-04-23T10:06:16;6.404;;;1.732;;
59986;SDS011;46181;51.498;5.392;2023-04-23T10:10:44;6.076;;;1.352;;
59986;SDS011;46181;51.498;5.392;2023-04-23T10:15:14;5.191999;;;1.432;;
59986;SDS011;46181;51.498;5.392;2023-04-23T10:19:44;7.192001;;;1.332;;
59986;SDS011;46181;51.498;5.392;2023-04-23T10:24:14;7.764;;;1.636;;
59986;SDS011;46181;51.498;5.392;2023-04-23T10:28:46;5.168001;;;1.4;;
59986;SDS011;46181;51.498;5.392;2023-04-23T10:33:14;5.824;;;1.524;;
59986;SDS011;46181;51.498;5.392;2023-04-23T10:37:44;5.432;;;1.596;;
59986;SDS011;46181;51.498;5.392;2023-04-23T10:42:14;5.952;;;1.652;;
59986;SDS011;46181;51.498;5.392;2023-04-23T10:46:49;3.504;;;1.248;;
59986;SDS011;46181;51.498;5.392;2023-04-23T10:51:15;4.328001;;;1.408;;
59986;SDS011;46181;51.498;5.392;2023-04-23T10:55:44;5.18;;;1.368;;
59986;SDS011;46181;51.498;5.392;2023-04-23T11:00:15;5.5;;;1.408;;
59986;SDS011;46181;51.498;5.392;2023-04-23T11:04:45;4.24;;;1.236;;
59986;SDS011;46181;51.498;5.392;2023-04-23T11:13:51;4.067999;;;1.304;;
59986;SDS011;46181;51.498;5.392;2023-04-23T11:18:14;4.364;;;1.548;;
59986;SDS011;46181;51.498;5.392;2023-04-23T11:22:45;4.26;;;1.284;;
59986;SDS011;46181;51.498;5.392;2023-04-23T11:27:15;3.816;;;1.3;;
59986;SDS011;46181;51.498;5.392;2023-04-23T11:31:45;5.108;;;1.512;;
59986;SDS011;46181;51.498;5.392;2023-04-23T11:36:14;3.283999;;;1.016;;
59986;SDS011;46181;51.498;5.392;2023-04-23T11:40:44;2.920001;;;0.812;;
59986;SDS011;46181;51.498;5.392;2023-04-23T11:45:20;3.784001;;;0.976;;
59986;SDS011;46181;51.498;5.392;2023-04-23T11:49:44;5.572;;;1.32;;
59986;SDS011;46181;51.498;5.392;2023-04-23T11:54:14;4.748;;;1.356;;
59986;SDS011;46181;51.498;5.392;2023-04-23T11:58:44;5.988001;;;1.508;;
59986;SDS011;46181;51.498;5.392;2023-04-23T12:03:14;4.444001;;;1.316;;
59986;SDS011;46181;51.498;5.392;2023-04-23T12:07:44;4.204;;;1.096;;
59986;SDS011;46181;51.498;5.392;2023-04-23T12:12:14;4.428;;;1.372;;
59986;SDS011;46181;51.498;5.392;2023-04-23T12:16:44;2.244;;;0.82;;
59986;SDS011;46181;51.498;5.392;2023-04-23T12:21:14;5.088;;;1.136;;
59986;SDS011;46181;51.498;5.392;2023-04-23T12:25:44;3.516;;;1.04;;
59986;SDS011;46181;51.498;5.392;2023-04-23T12:30:14;2.756;;;0.876;;
59986;SDS011;46181;51.498;5.392;2023-04-23T12:34:53;5.528;;;1.04;;
59986;SDS011;46181;51.498;5.392;2023-04-23T12:39:24;4.912;;;0.948;;
59986;SDS011;46181;51.498;5.392;2023-04-23T12:43:44;4.268;;;1.044;;
59986;SDS011;46181;51.498;5.392;2023-04-23T12:48:14;3.452;;;1;;
59986;SDS011;46181;51.498;5.392;2023-04-23T12:52:44;3.828;;;0.884;;
59986;SDS011;46181;51.498;5.392;2023-04-23T12:57:14;4.488;;;0.932;;
59986;SDS011;46181;51.498;5.392;2023-04-23T13:01:44;3.896;;;0.968;;
59986;SDS011;46181;51.498;5.392;2023-04-23T13:06:14;2.476;;;0.816;;
59986;SDS011;46181;51.498;5.392;2023-04-23T13:10:44;4.116;;;0.932;;
59986;SDS011;46181;51.498;5.392;2023-04-23T13:15:14;4.024001;;;0.852;;
59986;SDS011;46181;51.498;5.392;2023-04-23T13:19:44;4.256001;;;0.86;;
59986;SDS011;46181;51.498;5.392;2023-04-23T13:24:14;3.748;;;1.012;;
59986;SDS011;46181;51.498;5.392;2023-04-23T13:28:44;3.428;;;1.068;;
59986;SDS011;46181;51.498;5.392;2023-04-23T13:33:14;4.08;;;1.12;;
59986;SDS011;46181;51.498;5.392;2023-04-23T13:37:44;3.936;;;0.9;;
59986;SDS011;46181;51.498;5.392;2023-04-23T13:42:14;3.788;;;0.824;;
59986;SDS011;46181;51.498;5.392;2023-04-23T13:46:44;4.963999;;;1.06;;
59986;SDS011;46181;51.498;5.392;2023-04-23T13:51:14;4.291999;;;0.9;;
59986;SDS011;46181;51.498;5.392;2023-04-23T13:55:44;3.368001;;;1.024;;
59986;SDS011;46181;51.498;5.392;2023-04-23T14:00:15;3.62;;;1.168;;
59986;SDS011;46181;51.498;5.392;2023-04-23T14:04:44;5.424001;;;1.176;;
59986;SDS011;46181;51.498;5.392;2023-04-23T14:09:14;3.484;;;1.056;;
59986;SDS011;46181;51.498;5.392;2023-04-23T14:13:44;3.687999;;;1;;
59986;SDS011;46181;51.498;5.392;2023-04-23T14:18:14;3.916;;;1.292;;
59986;SDS011;46181;51.498;5.392;2023-04-23T14:22:44;4.784;;;1.26;;
59986;SDS011;46181;51.498;5.392;2023-04-23T14:27:14;4.952;;;1.544;;
59986;SDS011;46181;51.498;5.392;2023-04-23T14:31:44;4.188;;;1.492;;
59986;SDS011;46181;51.498;5.392;2023-04-23T14:36:14;14.308;;;1.816;;
59986;SDS011;46181;51.498;5.392;2023-04-23T14:40:44;6.559999;;;1.508;;
59986;SDS011;46181;51.498;5.392;2023-04-23T14:45:14;6.616001;;;1.892;;
59986;SDS011;46181;51.498;5.392;2023-04-23T14:49:44;3.764;;;1.324;;
59986;SDS011;46181;51.498;5.392;2023-04-23T14:54:14;5.864;;;1.816;;
59986;SDS011;46181;51.498;5.392;2023-04-23T14:58:44;5.576;;;1.804;;
59986;SDS011;46181;51.498;5.392;2023-04-23T15:03:14;4.680001;;;1.692;;
59986;SDS011;46181;51.498;5.392;2023-04-23T15:07:44;4.352;;;1.568;;
59986;SDS011;46181;51.498;5.392;2023-04-23T15:12:23;5.176;;;1.552;;
59986;SDS011;46181;51.498;5.392;2023-04-23T15:16:44;6.744;;;1.972;;
59986;SDS011;46181;51.498;5.392;2023-04-23T15:21:14;6.207999;;;2.116;;
59986;SDS011;46181;51.498;5.392;2023-04-23T15:25:44;4.916;;;1.828;;
59986;SDS011;46181;51.498;5.392;2023-04-23T15:30:14;5.116;;;2.128;;
59986;SDS011;46181;51.498;5.392;2023-04-23T15:34:44;5.088;;;2.176001;;
59986;SDS011;46181;51.498;5.392;2023-04-23T15:39:14;6.331999;;;2.172001;;
59986;SDS011;46181;51.498;5.392;2023-04-23T15:43:44;3.996001;;;1.8;;
59986;SDS011;46181;51.498;5.392;2023-04-23T15:48:14;6.384001;;;2.016;;
59986;SDS011;46181;51.498;5.392;2023-04-23T15:52:44;5.779999;;;2.008;;
59986;SDS011;46181;51.498;5.392;2023-04-23T15:57:14;7.756;;;2.200001;;
59986;SDS011;46181;51.498;5.392;2023-04-23T16:01:44;6.02;;;2.224;;
59986;SDS011;46181;51.498;5.392;2023-04-23T16:06:14;6.52;;;2.636;;
59986;SDS011;46181;51.498;5.392;2023-04-23T16:10:44;6.656;;;2.472001;;
59986;SDS011;46181;51.498;5.392;2023-04-23T16:15:14;8.275999;;;2.468;;
59986;SDS011;46181;51.498;5.392;2023-04-23T16:19:44;5.743999;;;2.36;;
59986;SDS011;46181;51.498;5.392;2023-04-23T16:24:14;6.379999;;;3.056;;
59986;SDS011;46181;51.498;5.392;2023-04-23T16:28:44;7.528;;;3.220001;;
59986;SDS011;46181;51.498;5.392;2023-04-23T16:33:14;5.728001;;;2.004;;
59986;SDS011;46181;51.498;5.392;2023-04-23T16:37:44;4.788;;;1.448;;
59986;SDS011;46181;51.498;5.392;2023-04-23T16:42:14;4.708;;;1.664;;
59986;SDS011;46181;51.498;5.392;2023-04-23T16:46:44;4.463999;;;1.892;;
59986;SDS011;46181;51.498;5.392;2023-04-23T16:51:14;4.888;;;1.912;;
59986;SDS011;46181;51.498;5.392;2023-04-23T16:55:44;5.912;;;2.44;;
59986;SDS011;46181;51.498;5.392;2023-04-23T17:00:15;5.380001;;;3.036;;
59986;SDS011;46181;51.498;5.392;2023-04-23T17:04:44;6.096001;;;2.164;;
59986;SDS011;46181;51.498;5.392;2023-04-23T17:09:14;9.127998;;;2.116;;
59986;SDS011;46181;51.498;5.392;2023-04-23T17:13:44;5.075999;;;1.956;;
59986;SDS011;46181;51.498;5.392;2023-04-23T17:18:14;4.816;;;2.248;;
59986;SDS011;46181;51.498;5.392;2023-04-23T17:22:44;5.404;;;2.324;;
59986;SDS011;46181;51.498;5.392;2023-04-23T17:27:14;5.432;;;2.504;;
59986;SDS011;46181;51.498;5.392;2023-04-23T17:31:44;5.360001;;;2.512;;
59986;SDS011;46181;51.498;5.392;2023-04-23T17:36:14;4.943999;;;2.804;;
59986;SDS011;46181;51.498;5.392;2023-04-23T17:40:44;13.296;;;6.652;;
59986;SDS011;46181;51.498;5.392;2023-04-23T17:45:14;13.24;;;6.156;;
59986;SDS011;46181;51.498;5.392;2023-04-23T17:49:44;11.232;;;5.36;;
59986;SDS011;46181;51.498;5.392;2023-04-23T17:54:14;9.532001;;;6.196;;
59986;SDS011;46181;51.498;5.392;2023-04-23T17:58:44;9.315999;;;4.272;;
59986;SDS011;46181;51.498;5.392;2023-04-23T18:03:14;8.047999;;;4.016;;
59986;SDS011;46181;51.498;5.392;2023-04-23T18:07:44;5.848;;;2.844;;
59986;SDS011;46181;51.498;5.392;2023-04-23T18:12:14;4.448;;;2.444;;
59986;SDS011;46181;51.498;5.392;2023-04-23T18:16:44;6.032001;;;2.528;;
59986;SDS011;46181;51.498;5.392;2023-04-23T18:21:14;5.228;;;2.584;;
59986;SDS011;46181;51.498;5.392;2023-04-23T18:25:44;7.892001;;;3.144;;
59986;SDS011;46181;51.498;5.392;2023-04-23T18:30:15;5.744;;;4.344001;;
59986;SDS011;46181;51.498;5.392;2023-04-23T18:34:44;4.256001;;;1.42;;
59986;SDS011;46181;51.498;5.392;2023-04-23T18:39:14;3.272;;;1.763999;;
59986;SDS011;46181;51.498;5.392;2023-04-23T18:43:44;2.128;;;1;;
59986;SDS011;46181;51.498;5.392;2023-04-23T18:48:24;3.124;;;1.052;;
59986;SDS011;46181;51.498;5.392;2023-04-23T18:52:44;1.568;;;0.748;;
59986;SDS011;46181;51.498;5.392;2023-04-23T18:57:14;2.212;;;0.708;;
59986;SDS011;46181;51.498;5.392;2023-04-23T19:01:44;1.1;;;0.516;;
59986;SDS011;46181;51.498;5.392;2023-04-23T19:06:14;0.788;;;0.476;;
59986;SDS011;46181;51.498;5.392;2023-04-23T19:10:44;1.04;;;0.5;;
59986;SDS011;46181;51.498;5.392;2023-04-23T19:15:14;0.804;;;0.408;;
59986;SDS011;46181;51.498;5.392;2023-04-23T19:19:44;0.448;;;0.3;;
59986;SDS011;46181;51.498;5.392;2023-04-23T19:24:14;1.784;;;0.312;;
59986;SDS011;46181;51.498;5.392;2023-04-23T19:28:44;0.796;;;0.388;;
59986;SDS011;46181;51.498;5.392;2023-04-23T19:33:14;1.064;;;0.4;;
59986;SDS011;46181;51.498;5.392;2023-04-23T19:37:44;0.58;;;0.3;;
59986;SDS011;46181;51.498;5.392;2023-04-23T19:42:14;1.572;;;0.4;;
59986;SDS011;46181;51.498;5.392;2023-04-23T19:46:44;1.288;;;0.328;;
59986;SDS011;46181;51.498;5.392;2023-04-23T19:51:14;0.576;;;0.4;;
59986;SDS011;46181;51.498;5.392;2023-04-23T19:55:44;0.78;;;0.436;;
59986;SDS011;46181;51.498;5.392;2023-04-23T20:00:15;0.9;;;0.5;;
59986;SDS011;46181;51.498;5.392;2023-04-23T20:04:44;1.788;;;0.776;;
59986;SDS011;46181;51.498;5.392;2023-04-23T20:09:14;1.428;;;0.788;;
59986;SDS011;46181;51.498;5.392;2023-04-23T20:13:44;2.476;;;1.2;;
59986;SDS011;46181;51.498;5.392;2023-04-23T20:18:14;2.764;;;1.452;;
59986;SDS011;46181;51.498;5.392;2023-04-23T20:22:44;3.707999;;;2.48;;
59986;SDS011;46181;51.498;5.392;2023-04-23T20:27:14;3.336001;;;2.576;;
59986;SDS011;46181;51.498;5.392;2023-04-23T20:31:44;2.948;;;2.26;;
59986;SDS011;46181;51.498;5.392;2023-04-23T20:36:14;3.695999;;;1.6;;
59986;SDS011;46181;51.498;5.392;2023-04-23T20:40:44;3.352;;;1.564;;
59986;SDS011;46181;51.498;5.392;2023-04-23T20:45:14;3.287999;;;2.180001;;
59986;SDS011;46181;51.498;5.392;2023-04-23T20:49:44;4.108001;;;2.316;;
59986;SDS011;46181;51.498;5.392;2023-04-23T20:54:14;4.324;;;2.916001;;
59986;SDS011;46181;51.498;5.392;2023-04-23T20:58:44;5.104001;;;2.996;;
59986;SDS011;46181;51.498;5.392;2023-04-23T21:03:14;5.027999;;;3.416001;;
59986;SDS011;46181;51.498;5.392;2023-04-23T21:07:44;4.832;;;3.28;;
59986;SDS011;46181;51.498;5.392;2023-04-23T21:12:14;5.548;;;3.5;;
59986;SDS011;46181;51.498;5.392;2023-04-23T21:16:44;4.980001;;;3.544;;
59986;SDS011;46181;51.498;5.392;2023-04-23T21:21:14;5.336001;;;3.34;;
59986;SDS011;46181;51.498;5.392;2023-04-23T21:25:44;4.444;;;2.852001;;
59986;SDS011;46181;51.498;5.392;2023-04-23T21:30:15;4.232;;;2.704;;
59986;SDS011;46181;51.498;5.392;2023-04-23T21:34:44;5.163999;;;2.456;;
59986;SDS011;46181;51.498;5.392;2023-04-23T21:39:14;4.775999;;;2.567999;;
59986;SDS011;46181;51.498;5.392;2023-04-23T21:43:44;4.380001;;;2.688;;
59986;SDS011;46181;51.498;5.392;2023-04-23T21:48:14;7.98;;;3.563999;;
59986;SDS011;46181;51.498;5.392;2023-04-23T21:52:44;6.803999;;;4.188;;
59986;SDS011;46181;51.498;5.392;2023-04-23T21:57:15;7.472;;;5.012;;
59986;SDS011;46181;51.498;5.392;2023-04-23T22:01:44;8.836;;;5.848001;;
59986;SDS011;46181;51.498;5.392;2023-04-23T22:06:15;9.704001;;;6.159999;;
59986;SDS011;46181;51.498;5.392;2023-04-23T22:10:45;12.492;;;6.352;;
59986;SDS011;46181;51.498;5.392;2023-04-23T22:15:15;9.176001;;;5.948001;;
59986;SDS011;46181;51.498;5.392;2023-04-23T22:19:44;9.604001;;;5.388;;
59986;SDS011;46181;51.498;5.392;2023-04-23T22:24:15;7.864;;;4.988;;
59986;SDS011;46181;51.498;5.392;2023-04-23T22:28:45;7.695999;;;4.467999;;
59986;SDS011;46181;51.498;5.392;2023-04-23T22:33:14;7.836001;;;3.788;;
59986;SDS011;46181;51.498;5.392;2023-04-23T22:37:45;6.012;;;3.788001;;
59986;SDS011;46181;51.498;5.392;2023-04-23T22:42:15;5.536;;;3.780001;;
59986;SDS011;46181;51.498;5.392;2023-04-23T22:46:45;5.788001;;;3.728;;
59986;SDS011;46181;51.498;5.392;2023-04-23T22:51:15;6.340001;;;4.16;;
59986;SDS011;46181;51.498;5.392;2023-04-23T22:55:45;5.467999;;;3.676;;
59986;SDS011;46181;51.498;5.392;2023-04-23T23:00:15;6.679999;;;4.196001;;
59986;SDS011;46181;51.498;5.392;2023-04-23T23:04:45;6.243999;;;4.288001;;
59986;SDS011;46181;51.498;5.392;2023-04-23T23:09:15;5.147999;;;3.555999;;
59986;SDS011;46181;51.498;5.392;2023-04-23T23:13:45;5.44;;;3.4;;
59986;SDS011;46181;51.498;5.392;2023-04-23T23:18:15;3.944;;;2.74;;
59986;SDS011;46181;51.498;5.392;2023-04-23T23:22:45;4.004;;;2.776;;
59986;SDS011;46181;51.498;5.392;2023-04-23T23:27:15;4.212;;;2.54;;
59986;SDS011;46181;51.498;5.392;2023-04-23T23:31:45;5.331999;;;2.46;;
59986;SDS011;46181;51.498;5.392;2023-04-23T23:36:15;5.184;;;3.416;;
59986;SDS011;46181;51.498;5.392;2023-04-23T23:40:45;6.736;;;4.504;;
59986;SDS011;46181;51.498;5.392;2023-04-23T23:45:15;6.552;;;4.848001;;
59986;SDS011;46181;51.498;5.392;2023-04-23T23:49:45;7.952;;;5.768001;;
59986;SDS011;46181;51.498;5.392;2023-04-23T23:54:15;9.668;;;6.376001;;
59986;SDS011;46181;51.498;5.392;2023-04-23T23:58:45;10.192;;;6.828001;;
